Mooch Better II — WDI4661 — position and weather

sailwx.info

Track history (hours):
 
Tides and Currents Weather Stations Pressure Air Temp Water Temp Dewpoint Dewpoint Depression Visibility Wind Speed Wind Dir Waves Ship Positions

Mooch Better II

Owner: mooch better fishing II, San Mateo, CA. More information available from US FCC via Universal Licensing System and Coast Guard Vessel Documentation Center.

Last reported at 2018-Feb-22 17:59 UTC. Time now 2018-Feb-22 18:26 UTC.
Position N 33°46' W 118°13'.

Length 33 m; draft 4.8 m.

Type: Other ship. MMSI: 367698890.

Date/timePositionNaut miles runAvg speedWind from/ knotsBaromVisibWave heightAir tempDewpointWater temp
2018-Feb-22 17:59N 33°46' W 118°13'0 0.0
2018-Feb-22 17:29N 33°46' W 118°13'0 0.0
2018-Feb-22 16:47N 33°46' W 118°13'0 0.0
2018-Feb-22 16:29N 33°46' W 118°13'0 0.0
2018-Feb-22 15:59N 33°46' W 118°13'0 0.0
2018-Feb-22 15:29N 33°46' W 118°13'0 0.0
2018-Feb-22 14:59N 33°46' W 118°13'0 0.0
2018-Feb-22 14:26N 33°46' W 118°13'0 0.0
2018-Feb-22 13:59N 33°46' W 118°13'0 0.0
2018-Feb-22 13:29N 33°46' W 118°13'0 0.0
2018-Feb-22 12:56N 33°46' W 118°13'0 0.0
2018-Feb-22 12:29N 33°46' W 118°13'0 0.0
2018-Feb-22 11:59N 33°46' W 118°13'0 0.0
2018-Feb-22 11:26N 33°46' W 118°13'0 0.0
2018-Feb-22 10:17N 33°46' W 118°13'0 0.0
2018-Feb-22 09:59N 33°46' W 118°13'0 0.0
2018-Feb-22 09:05N 33°46' W 118°13'0 0.0
2018-Feb-22 08:59N 33°46' W 118°13'0 0.0
2018-Feb-22 08:29N 33°46' W 118°13'0 0.0
2018-Feb-22 07:59N 33°46' W 118°13'0 0.0
2018-Feb-22 07:29N 33°46' W 118°13'0 0.0
2018-Feb-22 06:59N 33°46' W 118°13'0 0.0
2018-Feb-22 06:26N 33°46' W 118°13'0 0.0
2018-Feb-22 05:35N 33°46' W 118°13'0 0.0
2018-Feb-22 05:26N 33°46' W 118°13'0 0.0
2018-Feb-22 04:59N 33°46' W 118°13'0 0.0
2018-Feb-22 04:25N 33°46' W 118°13'0 0.0
2018-Feb-22 03:56N 33°46' W 118°13'0 0.0
2018-Feb-22 03:29N 33°46' W 118°13'0 0.0
2018-Feb-22 02:55N 33°46' W 118°13'0 0.0
2018-Feb-22 02:29N 33°46' W 118°13'0 0.0
2018-Feb-22 01:50N 33°46' W 118°13'0 0.0
2018-Feb-22 01:29N 33°46' W 118°13'0 0.0
2018-Feb-22 00:59N 33°46' W 118°13'0 0.0
2018-Feb-22 00:29N 33°46' W 118°13'0 0.0
2018-Feb-21 23:59N 33°46' W 118°13'0 0.0
2018-Feb-21 23:28N 33°46' W 118°13'0 0.0
2018-Feb-21 22:59N 33°46' W 118°13'0 0.0
2018-Feb-21 22:28N 33°46' W 118°13'0 0.0
2018-Feb-21 21:59N 33°46' W 118°13'0 0.0
2018-Feb-21 21:29N 33°46' W 118°13'0 0.8
2018-Feb-21 21:00N 33°45' W 118°13'3 6.7
2018-Feb-21 20:31N 33°43' W 118°16'1 1.4
2018-Feb-21 19:59N 33°44' W 118°16'0 0.0
2018-Feb-21 19:29N 33°44' W 118°16'0 0.3
2018-Feb-21 18:53N 33°44' W 118°16'1 3.9
2018-Feb-21 18:30N 33°43' W 118°15'3 6.2
2018-Feb-21 18:00N 33°46' W 118°13'0 0.0
2018-Feb-21 17:30N 33°46' W 118°13'0 0.0
2018-Feb-21 17:00N 33°46' W 118°13'0 0.0
2018-Feb-21 16:30N 33°46' W 118°13'0 0.0
2018-Feb-21 16:00N 33°46' W 118°13'0 0.0
2018-Feb-21 15:30N 33°46' W 118°13'0 0.0
2018-Feb-21 15:00N 33°46' W 118°13'0 0.0
2018-Feb-21 14:30N 33°46' W 118°13'0 0.0
2018-Feb-21 14:00N 33°46' W 118°13'0 0.0
2018-Feb-21 13:30N 33°46' W 118°13'0 0.0
2018-Feb-21 13:00N 33°46' W 118°13'0 0.0
2018-Feb-21 12:30N 33°46' W 118°13'0 0.0
2018-Feb-21 12:00N 33°46' W 118°13'0 0.0
2018-Feb-21 11:30N 33°46' W 118°13'0 0.0
2018-Feb-21 10:57N 33°46' W 118°13'0 0.0
2018-Feb-21 09:09N 33°46' W 118°13'0 0.0
2018-Feb-21 08:39N 33°46' W 118°13'0 0.0
2018-Feb-21 08:21N 33°46' W 118°13'0 0.0
2018-Feb-21 07:51N 33°46' W 118°13'0 0.0
2018-Feb-21 07:30N 33°46' W 118°13'0 0.0
2018-Feb-21 06:21N 33°46' W 118°13'0 0.0
2018-Feb-21 05:39N 33°46' W 118°13'0 0.0
2018-Feb-21 05:30N 33°46' W 118°13'0 0.0
2018-Feb-21 05:00N 33°46' W 118°13'0 0.0
2018-Feb-21 04:30N 33°46' W 118°13'0 0.0
2018-Feb-21 04:00N 33°46' W 118°13'0 0.0
2018-Feb-21 03:30N 33°46' W 118°13'0 0.0
2018-Feb-21 03:00N 33°46' W 118°13'0 0.0
2018-Feb-21 02:30N 33°46' W 118°13'0 0.0
2018-Feb-21 01:57N 33°46' W 118°13'0 0.0
2018-Feb-21 01:27N 33°46' W 118°13'0 0.0
2018-Feb-21 00:57N 33°46' W 118°13'2 3.7
2018-Feb-21 00:31N 33°44' W 118°13'3 6.8
2018-Feb-21 00:00N 33°42' W 118°16'4 7.0
2018-Feb-20 23:30N 33°39' W 118°14'4 8.5
2018-Feb-20 23:00N 33°43' W 118°11'3 6.2
2018-Feb-20 22:30N 33°46' W 118°13'0 0.9
2018-Feb-20 21:59N 33°45' W 118°13'0 0.9
2018-Feb-20 21:29N 33°46' W 118°13'0 0.0
2018-Feb-20 20:59N 33°46' W 118°13'0 0.0
2018-Feb-20 20:29N 33°46' W 118°13'0 0.0
2018-Feb-20 19:56N 33°46' W 118°13'0 0.0
2018-Feb-20 19:29N 33°46' W 118°13'0 0.0
2018-Feb-20 18:59N 33°46' W 118°13'0 0.0
2018-Feb-20 18:29N 33°46' W 118°13'0 0.0
2018-Feb-20 17:59N 33°46' W 118°13'0 0.0
2018-Feb-20 17:29N 33°46' W 118°13'0 0.0
2018-Feb-20 16:59N 33°46' W 118°13'0 0.0
2018-Feb-20 16:29N 33°46' W 118°13'0 0.0
2018-Feb-20 15:59N 33°46' W 118°13'0 0.0
2018-Feb-20 15:29N 33°46' W 118°13'0 0.0
2018-Feb-20 14:59N 33°46' W 118°13'0 0.0
2018-Feb-20 14:29N 33°46' W 118°13'0 0.0
2018-Feb-20 13:59N 33°46' W 118°13'0 0.0
2018-Feb-20 13:29N 33°46' W 118°13'0 0.0
2018-Feb-20 12:59N 33°46' W 118°13'0 0.0
2018-Feb-20 12:29N 33°46' W 118°13'0 0.0
2018-Feb-20 11:59N 33°46' W 118°13'0 0.0
2018-Feb-20 11:29N 33°46' W 118°13'0 0.0
2018-Feb-20 10:56N 33°46' W 118°13'0 0.0
2018-Feb-20 10:29N 33°46' W 118°13'0 0.0
2018-Feb-20 09:59N 33°46' W 118°13'0 0.0
2018-Feb-20 09:23N 33°46' W 118°13'0 0.0
2018-Feb-20 08:59N 33°46' W 118°13'0 0.0
2018-Feb-20 08:29N 33°46' W 118°13'0 0.0
2018-Feb-20 07:59N 33°46' W 118°13'0 0.0
2018-Feb-20 07:26N 33°46' W 118°13'0 0.0
2018-Feb-20 06:59N 33°46' W 118°13'0 0.0
2018-Feb-20 06:29N 33°46' W 118°13'0 0.0
2018-Feb-20 05:59N 33°46' W 118°13'0 0.0
2018-Feb-20 05:29N 33°46' W 118°13'0 0.0
2018-Feb-20 04:59N 33°46' W 118°13'0 0.0
2018-Feb-20 04:29N 33°46' W 118°13'0 0.0
2018-Feb-20 03:59N 33°46' W 118°13'0 0.0
2018-Feb-20 03:29N 33°46' W 118°13'0 0.0
2018-Feb-20 02:59N 33°46' W 118°13'0 0.0
2018-Feb-20 02:29N 33°46' W 118°13'0 0.0
2018-Feb-20 01:59N 33°46' W 118°13'0 0.0
2018-Feb-20 01:29N 33°46' W 118°13'0 0.0
2018-Feb-20 00:59N 33°46' W 118°13'0 0.0
2018-Feb-20 00:29N 33°46' W 118°13'0 0.0
2018-Feb-19 23:59N 33°46' W 118°13'0 0.0
2018-Feb-19 23:29N 33°46' W 118°13'0 0.0
2018-Feb-19 22:59N 33°46' W 118°13'0 0.0
2018-Feb-19 22:29N 33°46' W 118°13'0 0.0
2018-Feb-19 21:59N 33°46' W 118°13'0 0.0
2018-Feb-19 21:23N 33°46' W 118°13'0 0.0
2018-Feb-19 20:59N 33°46' W 118°13'0 0.0
2018-Feb-19 20:29N 33°46' W 118°13'0 0.0
2018-Feb-19 19:59N 33°46' W 118°13'0 0.0
2018-Feb-19 19:29N 33°46' W 118°13'1 1.8
2018-Feb-19 19:00N 33°45' W 118°13'0 0.9
2018-Feb-19 18:29N 33°45' W 118°14'1 1.7
2018-Feb-19 17:59N 33°46' W 118°13'0 0.0
2018-Feb-19 17:29N 33°46' W 118°13'0 0.0
2018-Feb-19 16:59N 33°46' W 118°13'0 0.0
2018-Feb-19 16:29N 33°46' W 118°13'0 0.0
2018-Feb-19 15:59N 33°46' W 118°13'0 0.0
2018-Feb-19 15:26N 33°46' W 118°13'0 0.0
2018-Feb-19 14:59N 33°46' W 118°13'0 0.0
2018-Feb-19 14:29N 33°46' W 118°13'0 0.0
2018-Feb-19 13:59N 33°46' W 118°13'0 0.0
2018-Feb-19 13:26N 33°46' W 118°13'0 0.0
2018-Feb-19 12:50N 33°46' W 118°13'0 0.0
2018-Feb-19 12:26N 33°46' W 118°13'0 0.0
2018-Feb-19 11:56N 33°46' W 118°13'0 0.0
2018-Feb-19 11:14N 33°46' W 118°13'0 0.0
2018-Feb-19 10:53N 33°46' W 118°13'0 0.0
2018-Feb-19 10:29N 33°46' W 118°13'0 0.0
2018-Feb-19 09:50N 33°46' W 118°13'0 0.0
2018-Feb-19 09:29N 33°46' W 118°13'0 0.0
2018-Feb-19 08:59N 33°46' W 118°13'0 0.0
2018-Feb-19 08:23N 33°46' W 118°13'0 0.0
2018-Feb-19 07:59N 33°46' W 118°13'0 0.0
2018-Feb-19 07:20N 33°46' W 118°13'0 0.0
2018-Feb-19 06:02N 33°46' W 118°13'0 0.0
2018-Feb-19 05:59N 33°46' W 118°13'0 0.0
2018-Feb-19 04:59N 33°46' W 118°13'0 0.0
2018-Feb-19 02:56N 33°46' W 118°13'0 0.0
2018-Feb-19 02:26N 33°46' W 118°13'0 0.0
2018-Feb-19 01:59N 33°46' W 118°13'0 0.0
2018-Feb-19 01:29N 33°46' W 118°13'0 0.0
2018-Feb-19 00:59N 33°46' W 118°13'0 0.0
2018-Feb-19 00:26N 33°46' W 118°13'0 0.0
2018-Feb-18 23:59N 33°46' W 118°13'0 0.0
2018-Feb-18 23:29N 33°46' W 118°13'0 0.0
2018-Feb-18 22:59N 33°46' W 118°13'0 0.0
2018-Feb-18 22:29N 33°46' W 118°13'0 0.0
2018-Feb-18 21:59N 33°46' W 118°13'0 0.0
2018-Feb-18 21:29N 33°46' W 118°13'0 0.0
2018-Feb-18 20:59N 33°46' W 118°13'0 0.0
2018-Feb-18 20:29N 33°46' W 118°13'0 0.0
2018-Feb-18 19:56N 33°46' W 118°13'0 0.0
2018-Feb-18 19:29N 33°46' W 118°13'0 0.0
2018-Feb-18 18:59N 33°46' W 118°13'0 0.0
2018-Feb-18 18:26N 33°46' W 118°13'0 0.0
2018-Feb-18 17:53N 33°46' W 118°13'0 0.0
2018-Feb-18 17:29N 33°46' W 118°13'0 0.0
2018-Feb-18 16:59N 33°46' W 118°13'0 0.0
2018-Feb-18 16:29N 33°46' W 118°13'0 0.0
2018-Feb-18 15:59N 33°46' W 118°13'0 0.0
2018-Feb-18 15:26N 33°46' W 118°13'0 0.0
2018-Feb-18 14:59N 33°46' W 118°13'0 0.0
2018-Feb-18 14:29N 33°46' W 118°13'0 0.0
2018-Feb-18 13:56N 33°46' W 118°13'0 0.0
2018-Feb-18 13:29N 33°46' W 118°13'0 0.0
2018-Feb-18 12:59N 33°46' W 118°13'0 0.0
2018-Feb-18 12:29N 33°46' W 118°13'0 0.0
2018-Feb-18 11:59N 33°46' W 118°13'0 0.0
2018-Feb-18 11:29N 33°46' W 118°13'0 0.0
2018-Feb-18 10:59N 33°46' W 118°13'0 0.0
2018-Feb-18 10:29N 33°46' W 118°13'0 0.0
2018-Feb-18 09:59N 33°46' W 118°13'0 0.0
2018-Feb-18 09:29N 33°46' W 118°13'0 0.0
2018-Feb-18 08:59N 33°46' W 118°13'0 0.0
2018-Feb-18 08:29N 33°46' W 118°13'0 0.0
2018-Feb-18 07:50N 33°46' W 118°13'0 0.0
2018-Feb-18 07:29N 33°46' W 118°13'0 0.0
2018-Feb-18 06:56N 33°46' W 118°13'0 0.0
2018-Feb-18 06:26N 33°46' W 118°13'0 0.0
2018-Feb-18 05:56N 33°46' W 118°13'0 0.0
2018-Feb-18 05:29N 33°46' W 118°13'0 0.0
2018-Feb-18 04:38N 33°46' W 118°13'0 0.0
2018-Feb-18 04:26N 33°46' W 118°13'0 0.0
2018-Feb-18 03:59N 33°46' W 118°13'0 0.0
2018-Feb-18 03:02N 33°46' W 118°13'0 0.0
2018-Feb-18 02:35N 33°46' W 118°13'0 0.0
2018-Feb-18 02:05N 33°46' W 118°13'0 0.0
2018-Feb-18 01:59N 33°46' W 118°13'0 0.0
2018-Feb-18 01:29N 33°46' W 118°13'0 0.0
2018-Feb-18 00:59N 33°46' W 118°13'0 0.0
2018-Feb-18 00:29N 33°46' W 118°13'0 0.0
2018-Feb-17 23:59N 33°46' W 118°13'0 0.0
2018-Feb-17 23:29N 33°46' W 118°13'0 0.0
2018-Feb-17 22:59N 33°46' W 118°13'0 0.0
2018-Feb-17 22:29N 33°46' W 118°13'0 0.0
2018-Feb-17 21:59N 33°46' W 118°13'0 0.0
2018-Feb-17 21:29N 33°46' W 118°13'0 0.0
2018-Feb-17 20:59N 33°46' W 118°13'0 0.0
2018-Feb-17 20:29N 33°46' W 118°13'0 0.0
2018-Feb-17 19:59N 33°46' W 118°13'0 0.0
2018-Feb-17 19:29N 33°46' W 118°13'0 0.0
2018-Feb-17 18:59N 33°46' W 118°13'0 0.0
2018-Feb-17 18:29N 33°46' W 118°13'0 0.0
2018-Feb-17 17:59N 33°46' W 118°13'0 0.0
2018-Feb-17 17:29N 33°46' W 118°13'0 0.0
2018-Feb-17 16:59N 33°46' W 118°13'0 0.0
2018-Feb-17 16:29N 33°46' W 118°13'0 0.0
2018-Feb-17 15:59N 33°46' W 118°13'0 0.0
2018-Feb-17 15:29N 33°46' W 118°13'0 0.0
2018-Feb-17 14:59N 33°46' W 118°13'0 0.0
2018-Feb-17 14:29N 33°46' W 118°13'0 0.0
2018-Feb-17 13:56N 33°46' W 118°13'0 0.0
2018-Feb-17 13:29N 33°46' W 118°13'0 0.0
2018-Feb-17 12:26N 33°46' W 118°13'0 0.0
2018-Feb-17 11:56N 33°46' W 118°13'0 0.0
2018-Feb-17 11:29N 33°46' W 118°13'0 0.0
2018-Feb-17 10:56N 33°46' W 118°13'0 0.0
2018-Feb-17 10:29N 33°46' W 118°13'0 0.0
2018-Feb-17 09:59N 33°46' W 118°13'0 0.0
2018-Feb-17 09:29N 33°46' W 118°13'0 0.0
2018-Feb-17 09:00N 33°46' W 118°13'0 0.0
2018-Feb-17 08:29N 33°46' W 118°13'0 0.0
2018-Feb-17 07:53N 33°46' W 118°13'0 0.0
2018-Feb-17 07:20N 33°46' W 118°13'0 0.0
2018-Feb-17 06:53N 33°46' W 118°13'0 0.0
2018-Feb-17 06:20N 33°46' W 118°13'0 0.0
2018-Feb-17 05:59N 33°46' W 118°13'0 0.0
2018-Feb-17 05:29N 33°46' W 118°13'0 0.0
2018-Feb-17 04:59N 33°46' W 118°13'0 0.0
2018-Feb-17 04:29N 33°46' W 118°13'0 0.0
2018-Feb-17 03:59N 33°46' W 118°13'0 0.0
2018-Feb-17 03:23N 33°46' W 118°13'0 0.0
2018-Feb-17 02:56N 33°46' W 118°13'0 0.0
2018-Feb-17 02:29N 33°46' W 118°13'0 0.0
2018-Feb-17 01:59N 33°46' W 118°13'0 0.0
2018-Feb-17 01:29N 33°46' W 118°13'0 0.0
2018-Feb-17 00:59N 33°46' W 118°13'0 0.0
2018-Feb-17 00:29N 33°46' W 118°13'0 0.0
2018-Feb-16 23:59N 33°46' W 118°13'0 0.0
2018-Feb-16 23:29N 33°46' W 118°13'0 0.0
2018-Feb-16 22:59N 33°46' W 118°13'0 0.0
2018-Feb-16 22:29N 33°46' W 118°13'0 0.0
2018-Feb-16 21:59N 33°46' W 118°13'0 0.0
2018-Feb-16 21:29N 33°46' W 118°13'0 0.0
2018-Feb-16 20:59N 33°46' W 118°13'0 0.0
2018-Feb-16 20:29N 33°46' W 118°13'0 0.0
2018-Feb-16 19:56N 33°46' W 118°13'0 0.0
2018-Feb-16 19:29N 33°46' W 118°13'0 0.0
2018-Feb-16 18:59N 33°46' W 118°13'0 0.0
2018-Feb-16 18:29N 33°46' W 118°13'0 0.0
2018-Feb-16 17:59N 33°46' W 118°13'0 0.0
2018-Feb-16 17:29N 33°46' W 118°13'0 0.0
2018-Feb-16 16:59N 33°46' W 118°13'0 0.0
2018-Feb-16 16:26N 33°46' W 118°13'0 0.0
2018-Feb-16 15:59N 33°46' W 118°13'0 0.0
2018-Feb-16 15:29N 33°46' W 118°13'0 0.0
2018-Feb-16 14:59N 33°46' W 118°13'0 0.0
2018-Feb-16 14:26N 33°46' W 118°13'0 0.0
2018-Feb-16 13:59N 33°46' W 118°13'0 0.0
2018-Feb-16 13:29N 33°46' W 118°13'0 0.0
2018-Feb-16 12:59N 33°46' W 118°13'0 0.0
2018-Feb-16 12:29N 33°46' W 118°13'0 0.0
2018-Feb-16 11:59N 33°46' W 118°13'0 0.0
2018-Feb-16 11:29N 33°46' W 118°13'0 0.0
2018-Feb-16 10:59N 33°46' W 118°13'0 0.0
2018-Feb-16 10:29N 33°46' W 118°13'0 0.0
2018-Feb-16 09:59N 33°46' W 118°13'0 0.0
2018-Feb-16 09:29N 33°46' W 118°13'0 0.0
2018-Feb-16 08:50N 33°46' W 118°13'0 0.0
2018-Feb-16 08:23N 33°46' W 118°13'0 0.0
2018-Feb-16 07:17N 33°46' W 118°13'0 0.0
2018-Feb-16 06:59N 33°46' W 118°13'0 0.0
2018-Feb-16 06:29N 33°46' W 118°13'0 0.0
2018-Feb-16 05:59N 33°46' W 118°13'0 0.0
2018-Feb-16 04:29N 33°46' W 118°13'0 0.0
2018-Feb-16 03:53N 33°46' W 118°13'0 0.0
2018-Feb-16 03:29N 33°46' W 118°13'0 0.0
2018-Feb-16 02:59N 33°46' W 118°13'0 0.0
2018-Feb-16 02:23N 33°46' W 118°13'0 0.0
2018-Feb-16 01:47N 33°46' W 118°13'0 0.0
2018-Feb-16 01:23N 33°46' W 118°13'0 0.0
2018-Feb-16 00:59N 33°46' W 118°13'0 0.0
2018-Feb-16 00:29N 33°46' W 118°13'0 0.0
2018-Feb-15 23:59N 33°46' W 118°13'0 0.0
2018-Feb-15 23:29N 33°46' W 118°13'0 0.0
2018-Feb-15 22:59N 33°46' W 118°13'0 0.0
2018-Feb-15 22:29N 33°46' W 118°13'0 0.0
2018-Feb-15 21:59N 33°46' W 118°13'0 0.0
2018-Feb-15 21:29N 33°46' W 118°13'0 0.0
2018-Feb-15 20:59N 33°46' W 118°13'0 0.0
2018-Feb-15 20:29N 33°46' W 118°13'0 0.0
2018-Feb-15 19:56N 33°46' W 118°13'0 0.0
2018-Feb-15 19:29N 33°46' W 118°13'0 0.0
2018-Feb-15 18:53N 33°46' W 118°13'0 0.0
2018-Feb-15 18:26N 33°46' W 118°13'0 0.0
2018-Feb-15 17:59N 33°46' W 118°13'0 0.0
2018-Feb-15 17:29N 33°46' W 118°13'0 0.0
2018-Feb-15 16:59N 33°46' W 118°13'0 0.0
2018-Feb-15 16:29N 33°46' W 118°13'0 0.0
2018-Feb-15 15:59N 33°46' W 118°13'0 0.0
2018-Feb-15 15:28N 33°46' W 118°13'0 0.0
2018-Feb-15 14:59N 33°46' W 118°13'0 0.0
2018-Feb-15 13:56N 33°46' W 118°13'0 0.0
2018-Feb-15 10:46N 33°46' W 118°13'0 0.0
2018-Feb-15 10:08N 33°46' W 118°13'0 0.0
2018-Feb-15 09:44N 33°46' W 118°13'0 0.0
2018-Feb-15 09:26N 33°46' W 118°13'0 0.0
2018-Feb-15 08:55N 33°46' W 118°13'0 0.0
2018-Feb-15 08:29N 33°46' W 118°13'0 0.0
2018-Feb-15 07:59N 33°46' W 118°13'0 0.0
2018-Feb-15 07:29N 33°46' W 118°13'0 0.0
2018-Feb-15 06:58N 33°46' W 118°13'0 0.0
2018-Feb-15 06:23N 33°46' W 118°13'0 0.0
2018-Feb-15 05:59N 33°46' W 118°13'0 0.0
2018-Feb-15 05:28N 33°46' W 118°13'0 0.0
2018-Feb-15 04:59N 33°46' W 118°13'0 0.0
2018-Feb-15 04:29N 33°46' W 118°13'0 0.0
2018-Feb-15 03:55N 33°46' W 118°13'0 0.0
2018-Feb-15 03:29N 33°46' W 118°13'0 0.0
2018-Feb-15 02:58N 33°46' W 118°13'0 0.0
2018-Feb-15 02:29N 33°46' W 118°13'0 0.0
2018-Feb-15 01:58N 33°46' W 118°13'0 0.0
2018-Feb-15 01:29N 33°46' W 118°13'0 0.0
2018-Feb-15 00:59N 33°46' W 118°13'0 0.0
2018-Feb-15 00:28N 33°46' W 118°13'0 0.0
2018-Feb-14 23:59N 33°46' W 118°13'0 0.0
2018-Feb-14 23:29N 33°46' W 118°13'0 0.0
2018-Feb-14 22:58N 33°46' W 118°13'0 0.0
2018-Feb-14 22:28N 33°46' W 118°13'0 0.0
2018-Feb-14 21:58N 33°46' W 118°13'0 0.0
2018-Feb-14 21:28N 33°46' W 118°13'0 0.0
2018-Feb-14 20:59N 33°46' W 118°13'0 0.0
2018-Feb-14 20:29N 33°46' W 118°13'0 0.0
2018-Feb-14 19:59N 33°46' W 118°13'0 0.0
2018-Feb-14 19:29N 33°46' W 118°13'0 0.0
2018-Feb-14 18:55N 33°46' W 118°13'0 0.0
2018-Feb-14 18:28N 33°46' W 118°13'0 0.0
2018-Feb-14 17:58N 33°46' W 118°13'0 0.0
2018-Feb-14 17:29N 33°46' W 118°13'0 0.0
2018-Feb-14 16:58N 33°46' W 118°13'0 0.0
2018-Feb-14 16:28N 33°46' W 118°13'0 0.0
2018-Feb-14 15:58N 33°46' W 118°13'0 0.0
2018-Feb-14 15:28N 33°46' W 118°13'0 0.0
2018-Feb-14 14:58N 33°46' W 118°13'0 0.0
2018-Feb-14 14:28N 33°46' W 118°13'0 0.0
2018-Feb-14 13:58N 33°46' W 118°13'0 0.0
2018-Feb-14 13:28N 33°46' W 118°13'0 0.0
2018-Feb-14 12:58N 33°46' W 118°13'0 0.0
2018-Feb-14 12:28N 33°46' W 118°13'0 0.0
2018-Feb-14 11:59N 33°46' W 118°13'0 0.0
2018-Feb-14 11:28N 33°46' W 118°13'0 0.0
2018-Feb-14 10:58N 33°46' W 118°13'0 0.0
2018-Feb-14 10:28N 33°46' W 118°13'0 0.0
2018-Feb-14 09:58N 33°46' W 118°13'0 0.0
2018-Feb-14 09:28N 33°46' W 118°13'0 0.0
2018-Feb-14 08:58N 33°46' W 118°13'0 0.0
2018-Feb-14 08:28N 33°46' W 118°13'0 0.0
2018-Feb-14 07:58N 33°46' W 118°13'0 0.0
2018-Feb-14 07:25N 33°46' W 118°13'0 0.0
2018-Feb-14 06:58N 33°46' W 118°13'0 0.0
2018-Feb-14 06:28N 33°46' W 118°13'0 0.0
2018-Feb-14 05:58N 33°46' W 118°13'0 0.0
2018-Feb-14 05:28N 33°46' W 118°13'0 0.0
2018-Feb-14 04:58N 33°46' W 118°13'0 0.0
2018-Feb-14 04:28N 33°46' W 118°13'0 0.0
2018-Feb-14 03:58N 33°46' W 118°13'0 0.0
2018-Feb-14 03:28N 33°46' W 118°13'0 0.0
2018-Feb-14 02:58N 33°46' W 118°13'0 0.0
2018-Feb-14 02:28N 33°46' W 118°13'0 0.0
2018-Feb-14 01:58N 33°46' W 118°13'0 0.0
2018-Feb-14 01:28N 33°46' W 118°13'0 0.0
2018-Feb-14 00:58N 33°46' W 118°13'0 0.0
2018-Feb-14 00:25N 33°46' W 118°13'0 0.0
2018-Feb-13 23:58N 33°46' W 118°13'0 0.0
2018-Feb-13 23:28N 33°46' W 118°13'0 0.0
2018-Feb-13 22:58N 33°46' W 118°13'0 0.0
2018-Feb-13 22:28N 33°46' W 118°13'0 0.0
2018-Feb-13 21:58N 33°46' W 118°13'0 0.0
2018-Feb-13 21:28N 33°46' W 118°13'0 0.0
2018-Feb-13 20:58N 33°46' W 118°13'0 0.0
2018-Feb-13 20:28N 33°46' W 118°13'0 0.0
2018-Feb-13 19:52N 33°46' W 118°13'0 0.0
2018-Feb-13 19:28N 33°46' W 118°13'0 0.0
2018-Feb-13 18:58N 33°46' W 118°13'0 0.0
2018-Feb-13 18:28N 33°46' W 118°13'0 0.0
2018-Feb-13 17:58N 33°46' W 118°13'0 0.0
2018-Feb-13 17:28N 33°46' W 118°13'0 0.0
2018-Feb-13 16:58N 33°46' W 118°13'0 0.0
2018-Feb-13 16:28N 33°46' W 118°13'0 0.0
2018-Feb-13 15:58N 33°46' W 118°13'0 0.0
2018-Feb-13 15:28N 33°46' W 118°13'0 0.0
2018-Feb-13 14:58N 33°46' W 118°13'0 0.0
2018-Feb-13 14:28N 33°46' W 118°13'0 0.0
2018-Feb-13 13:58N 33°46' W 118°13'0 0.0
2018-Feb-13 13:28N 33°46' W 118°13'0 0.0
2018-Feb-13 12:58N 33°46' W 118°13'0 0.0
2018-Feb-13 12:25N 33°46' W 118°13'0 0.0
2018-Feb-13 11:58N 33°46' W 118°13'0 0.0
2018-Feb-13 11:28N 33°46' W 118°13'0 0.0
2018-Feb-13 10:58N 33°46' W 118°13'0 0.0
2018-Feb-13 10:28N 33°46' W 118°13'0 0.0
2018-Feb-13 09:58N 33°46' W 118°13'0 0.0
2018-Feb-13 09:28N 33°46' W 118°13'0 0.0
2018-Feb-13 08:58N 33°46' W 118°13'0 0.0
2018-Feb-13 08:25N 33°46' W 118°13'0 0.0
2018-Feb-13 07:58N 33°46' W 118°13'0 0.0
2018-Feb-13 07:28N 33°46' W 118°13'0 0.0
2018-Feb-13 06:58N 33°46' W 118°13'0 0.0
2018-Feb-13 06:28N 33°46' W 118°13'0 0.0
2018-Feb-13 05:58N 33°46' W 118°13'0 0.0
2018-Feb-13 05:28N 33°46' W 118°13'0 0.0
2018-Feb-13 04:58N 33°46' W 118°13'0 0.0
2018-Feb-13 04:28N 33°46' W 118°13'0 0.0
2018-Feb-13 03:58N 33°46' W 118°13'0 0.0
2018-Feb-13 03:25N 33°46' W 118°13'0 0.0
2018-Feb-13 02:58N 33°46' W 118°13'0 0.0
2018-Feb-13 02:28N 33°46' W 118°13'0 0.0
2018-Feb-13 01:58N 33°46' W 118°13'0 0.0
2018-Feb-13 01:28N 33°46' W 118°13'0 0.0
2018-Feb-13 00:58N 33°46' W 118°13'0 0.0
2018-Feb-13 00:28N 33°46' W 118°13'0 0.0
2018-Feb-12 23:58N 33°46' W 118°13'0 0.0
2018-Feb-12 23:28N 33°46' W 118°13'0 0.0
2018-Feb-12 22:58N 33°46' W 118°13'0 0.0
2018-Feb-12 22:28N 33°46' W 118°13'0 0.0
2018-Feb-12 21:58N 33°46' W 118°13'0 0.0
2018-Feb-12 21:28N 33°46' W 118°13'0 0.0
2018-Feb-12 20:58N 33°46' W 118°13'0 0.0
2018-Feb-12 20:28N 33°46' W 118°13'0 0.0
2018-Feb-12 19:58N 33°46' W 118°13'0 0.0
2018-Feb-12 19:28N 33°46' W 118°13'0 0.0
2018-Feb-12 18:52N 33°46' W 118°13'0 0.0
2018-Feb-12 18:28N 33°46' W 118°13'  
Track history (hours):
 
Tides and Currents Weather Stations Pressure Air Temp Water Temp Dewpoint Dewpoint Depression Visibility Wind Speed Wind Dir Waves Ship Positions

Mooch Better II

Owner: mooch better fishing II, San Mateo, CA. More information available from US FCC via Universal Licensing System and Coast Guard Vessel Documentation Center.

Last reported at 2018-Feb-22 17:59 UTC. Time now 2018-Feb-22 18:26 UTC.
Position N 33°46' W 118°13'.

Length 33 m; draft 4.8 m.

Type: Other ship. MMSI: 367698890.

Date/timePositionNaut miles runAvg speedWind from/ knotsBaromVisibWave heightAir tempDewpointWater temp
2018-Feb-22 17:59N 33°46' W 118°13'0 0.0
2018-Feb-22 17:29N 33°46' W 118°13'0 0.0
2018-Feb-22 16:47N 33°46' W 118°13'0 0.0
2018-Feb-22 16:29N 33°46' W 118°13'0 0.0
2018-Feb-22 15:59N 33°46' W 118°13'0 0.0
2018-Feb-22 15:29N 33°46' W 118°13'0 0.0
2018-Feb-22 14:59N 33°46' W 118°13'0 0.0
2018-Feb-22 14:26N 33°46' W 118°13'0 0.0
2018-Feb-22 13:59N 33°46' W 118°13'0 0.0
2018-Feb-22 13:29N 33°46' W 118°13'0 0.0
2018-Feb-22 12:56N 33°46' W 118°13'0 0.0
2018-Feb-22 12:29N 33°46' W 118°13'0 0.0
2018-Feb-22 11:59N 33°46' W 118°13'0 0.0
2018-Feb-22 11:26N 33°46' W 118°13'0 0.0
2018-Feb-22 10:17N 33°46' W 118°13'0 0.0
2018-Feb-22 09:59N 33°46' W 118°13'0 0.0
2018-Feb-22 09:05N 33°46' W 118°13'0 0.0
2018-Feb-22 08:59N 33°46' W 118°13'0 0.0
2018-Feb-22 08:29N 33°46' W 118°13'0 0.0
2018-Feb-22 07:59N 33°46' W 118°13'0 0.0
2018-Feb-22 07:29N 33°46' W 118°13'0 0.0
2018-Feb-22 06:59N 33°46' W 118°13'0 0.0
2018-Feb-22 06:26N 33°46' W 118°13'0 0.0
2018-Feb-22 05:35N 33°46' W 118°13'0 0.0
2018-Feb-22 05:26N 33°46' W 118°13'0 0.0
2018-Feb-22 04:59N 33°46' W 118°13'0 0.0
2018-Feb-22 04:25N 33°46' W 118°13'0 0.0
2018-Feb-22 03:56N 33°46' W 118°13'0 0.0
2018-Feb-22 03:29N 33°46' W 118°13'0 0.0
2018-Feb-22 02:55N 33°46' W 118°13'0 0.0
2018-Feb-22 02:29N 33°46' W 118°13'0 0.0
2018-Feb-22 01:50N 33°46' W 118°13'0 0.0
2018-Feb-22 01:29N 33°46' W 118°13'0 0.0
2018-Feb-22 00:59N 33°46' W 118°13'0 0.0
2018-Feb-22 00:29N 33°46' W 118°13'0 0.0
2018-Feb-21 23:59N 33°46' W 118°13'0 0.0
2018-Feb-21 23:28N 33°46' W 118°13'0 0.0
2018-Feb-21 22:59N 33°46' W 118°13'0 0.0
2018-Feb-21 22:28N 33°46' W 118°13'0 0.0
2018-Feb-21 21:59N 33°46' W 118°13'0 0.0
2018-Feb-21 21:29N 33°46' W 118°13'0 0.8
2018-Feb-21 21:00N 33°45' W 118°13'3 6.7
2018-Feb-21 20:31N 33°43' W 118°16'1 1.4
2018-Feb-21 19:59N 33°44' W 118°16'0 0.0
2018-Feb-21 19:29N 33°44' W 118°16'0 0.3
2018-Feb-21 18:53N 33°44' W 118°16'1 3.9
2018-Feb-21 18:30N 33°43' W 118°15'3 6.2
2018-Feb-21 18:00N 33°46' W 118°13'0 0.0
2018-Feb-21 17:30N 33°46' W 118°13'0 0.0
2018-Feb-21 17:00N 33°46' W 118°13'0 0.0
2018-Feb-21 16:30N 33°46' W 118°13'0 0.0
2018-Feb-21 16:00N 33°46' W 118°13'0 0.0
2018-Feb-21 15:30N 33°46' W 118°13'0 0.0
2018-Feb-21 15:00N 33°46' W 118°13'0 0.0
2018-Feb-21 14:30N 33°46' W 118°13'0 0.0
2018-Feb-21 14:00N 33°46' W 118°13'0 0.0
2018-Feb-21 13:30N 33°46' W 118°13'0 0.0
2018-Feb-21 13:00N 33°46' W 118°13'0 0.0
2018-Feb-21 12:30N 33°46' W 118°13'0 0.0
2018-Feb-21 12:00N 33°46' W 118°13'0 0.0
2018-Feb-21 11:30N 33°46' W 118°13'0 0.0
2018-Feb-21 10:57N 33°46' W 118°13'0 0.0
2018-Feb-21 09:09N 33°46' W 118°13'0 0.0
2018-Feb-21 08:39N 33°46' W 118°13'0 0.0
2018-Feb-21 08:21N 33°46' W 118°13'0 0.0
2018-Feb-21 07:51N 33°46' W 118°13'0 0.0
2018-Feb-21 07:30N 33°46' W 118°13'0 0.0
2018-Feb-21 06:21N 33°46' W 118°13'0 0.0
2018-Feb-21 05:39N 33°46' W 118°13'0 0.0
2018-Feb-21 05:30N 33°46' W 118°13'0 0.0
2018-Feb-21 05:00N 33°46' W 118°13'0 0.0
2018-Feb-21 04:30N 33°46' W 118°13'0 0.0
2018-Feb-21 04:00N 33°46' W 118°13'0 0.0
2018-Feb-21 03:30N 33°46' W 118°13'0 0.0
2018-Feb-21 03:00N 33°46' W 118°13'0 0.0
2018-Feb-21 02:30N 33°46' W 118°13'0 0.0
2018-Feb-21 01:57N 33°46' W 118°13'0 0.0
2018-Feb-21 01:27N 33°46' W 118°13'0 0.0
2018-Feb-21 00:57N 33°46' W 118°13'2 3.7
2018-Feb-21 00:31N 33°44' W 118°13'3 6.8
2018-Feb-21 00:00N 33°42' W 118°16'4 7.0
2018-Feb-20 23:30N 33°39' W 118°14'4 8.5
2018-Feb-20 23:00N 33°43' W 118°11'3 6.2
2018-Feb-20 22:30N 33°46' W 118°13'0 0.9
2018-Feb-20 21:59N 33°45' W 118°13'0 0.9
2018-Feb-20 21:29N 33°46' W 118°13'0 0.0
2018-Feb-20 20:59N 33°46' W 118°13'0 0.0
2018-Feb-20 20:29N 33°46' W 118°13'0 0.0
2018-Feb-20 19:56N 33°46' W 118°13'0 0.0
2018-Feb-20 19:29N 33°46' W 118°13'0 0.0
2018-Feb-20 18:59N 33°46' W 118°13'0 0.0
2018-Feb-20 18:29N 33°46' W 118°13'0 0.0
2018-Feb-20 17:59N 33°46' W 118°13'0 0.0
2018-Feb-20 17:29N 33°46' W 118°13'0 0.0
2018-Feb-20 16:59N 33°46' W 118°13'0 0.0
2018-Feb-20 16:29N 33°46' W 118°13'0 0.0
2018-Feb-20 15:59N 33°46' W 118°13'0 0.0
2018-Feb-20 15:29N 33°46' W 118°13'0 0.0
2018-Feb-20 14:59N 33°46' W 118°13'0 0.0
2018-Feb-20 14:29N 33°46' W 118°13'0 0.0
2018-Feb-20 13:59N 33°46' W 118°13'0 0.0
2018-Feb-20 13:29N 33°46' W 118°13'0 0.0
2018-Feb-20 12:59N 33°46' W 118°13'0 0.0
2018-Feb-20 12:29N 33°46' W 118°13'0 0.0
2018-Feb-20 11:59N 33°46' W 118°13'0 0.0
2018-Feb-20 11:29N 33°46' W 118°13'0 0.0
2018-Feb-20 10:56N 33°46' W 118°13'0 0.0
2018-Feb-20 10:29N 33°46' W 118°13'0 0.0
2018-Feb-20 09:59N 33°46' W 118°13'0 0.0
2018-Feb-20 09:23N 33°46' W 118°13'0 0.0
2018-Feb-20 08:59N 33°46' W 118°13'0 0.0
2018-Feb-20 08:29N 33°46' W 118°13'0 0.0
2018-Feb-20 07:59N 33°46' W 118°13'0 0.0
2018-Feb-20 07:26N 33°46' W 118°13'0 0.0
2018-Feb-20 06:59N 33°46' W 118°13'0 0.0
2018-Feb-20 06:29N 33°46' W 118°13'0 0.0
2018-Feb-20 05:59N 33°46' W 118°13'0 0.0
2018-Feb-20 05:29N 33°46' W 118°13'0 0.0
2018-Feb-20 04:59N 33°46' W 118°13'0 0.0
2018-Feb-20 04:29N 33°46' W 118°13'0 0.0
2018-Feb-20 03:59N 33°46' W 118°13'0 0.0
2018-Feb-20 03:29N 33°46' W 118°13'0 0.0
2018-Feb-20 02:59N 33°46' W 118°13'0 0.0
2018-Feb-20 02:29N 33°46' W 118°13'0 0.0
2018-Feb-20 01:59N 33°46' W 118°13'0 0.0
2018-Feb-20 01:29N 33°46' W 118°13'0 0.0
2018-Feb-20 00:59N 33°46' W 118°13'0 0.0
2018-Feb-20 00:29N 33°46' W 118°13'0 0.0
2018-Feb-19 23:59N 33°46' W 118°13'0 0.0
2018-Feb-19 23:29N 33°46' W 118°13'0 0.0
2018-Feb-19 22:59N 33°46' W 118°13'0 0.0
2018-Feb-19 22:29N 33°46' W 118°13'0 0.0
2018-Feb-19 21:59N 33°46' W 118°13'0 0.0
2018-Feb-19 21:23N 33°46' W 118°13'0 0.0
2018-Feb-19 20:59N 33°46' W 118°13'0 0.0
2018-Feb-19 20:29N 33°46' W 118°13'0 0.0
2018-Feb-19 19:59N 33°46' W 118°13'0 0.0
2018-Feb-19 19:29N 33°46' W 118°13'1 1.8
2018-Feb-19 19:00N 33°45' W 118°13'0 0.9
2018-Feb-19 18:29N 33°45' W 118°14'1 1.7
2018-Feb-19 17:59N 33°46' W 118°13'0 0.0
2018-Feb-19 17:29N 33°46' W 118°13'0 0.0
2018-Feb-19 16:59N 33°46' W 118°13'0 0.0
2018-Feb-19 16:29N 33°46' W 118°13'0 0.0
2018-Feb-19 15:59N 33°46' W 118°13'0 0.0
2018-Feb-19 15:26N 33°46' W 118°13'0 0.0
2018-Feb-19 14:59N 33°46' W 118°13'0 0.0
2018-Feb-19 14:29N 33°46' W 118°13'0 0.0
2018-Feb-19 13:59N 33°46' W 118°13'0 0.0
2018-Feb-19 13:26N 33°46' W 118°13'0 0.0
2018-Feb-19 12:50N 33°46' W 118°13'0 0.0
2018-Feb-19 12:26N 33°46' W 118°13'0 0.0
2018-Feb-19 11:56N 33°46' W 118°13'0 0.0
2018-Feb-19 11:14N 33°46' W 118°13'0 0.0
2018-Feb-19 10:53N 33°46' W 118°13'0 0.0
2018-Feb-19 10:29N 33°46' W 118°13'0 0.0
2018-Feb-19 09:50N 33°46' W 118°13'0 0.0
2018-Feb-19 09:29N 33°46' W 118°13'0 0.0
2018-Feb-19 08:59N 33°46' W 118°13'0 0.0
2018-Feb-19 08:23N 33°46' W 118°13'0 0.0
2018-Feb-19 07:59N 33°46' W 118°13'0 0.0
2018-Feb-19 07:20N 33°46' W 118°13'0 0.0
2018-Feb-19 06:02N 33°46' W 118°13'0 0.0
2018-Feb-19 05:59N 33°46' W 118°13'0 0.0
2018-Feb-19 04:59N 33°46' W 118°13'0 0.0
2018-Feb-19 02:56N 33°46' W 118°13'0 0.0
2018-Feb-19 02:26N 33°46' W 118°13'0 0.0
2018-Feb-19 01:59N 33°46' W 118°13'0 0.0
2018-Feb-19 01:29N 33°46' W 118°13'0 0.0
2018-Feb-19 00:59N 33°46' W 118°13'0 0.0
2018-Feb-19 00:26N 33°46' W 118°13'0 0.0
2018-Feb-18 23:59N 33°46' W 118°13'0 0.0
2018-Feb-18 23:29N 33°46' W 118°13'0 0.0
2018-Feb-18 22:59N 33°46' W 118°13'0 0.0
2018-Feb-18 22:29N 33°46' W 118°13'0 0.0
2018-Feb-18 21:59N 33°46' W 118°13'0 0.0
2018-Feb-18 21:29N 33°46' W 118°13'0 0.0
2018-Feb-18 20:59N 33°46' W 118°13'0 0.0
2018-Feb-18 20:29N 33°46' W 118°13'0 0.0
2018-Feb-18 19:56N 33°46' W 118°13'0 0.0
2018-Feb-18 19:29N 33°46' W 118°13'0 0.0
2018-Feb-18 18:59N 33°46' W 118°13'0 0.0
2018-Feb-18 18:26N 33°46' W 118°13'0 0.0
2018-Feb-18 17:53N 33°46' W 118°13'0 0.0
2018-Feb-18 17:29N 33°46' W 118°13'0 0.0
2018-Feb-18 16:59N 33°46' W 118°13'0 0.0
2018-Feb-18 16:29N 33°46' W 118°13'0 0.0
2018-Feb-18 15:59N 33°46' W 118°13'0 0.0
2018-Feb-18 15:26N 33°46' W 118°13'0 0.0
2018-Feb-18 14:59N 33°46' W 118°13'0 0.0
2018-Feb-18 14:29N 33°46' W 118°13'0 0.0
2018-Feb-18 13:56N 33°46' W 118°13'0 0.0
2018-Feb-18 13:29N 33°46' W 118°13'0 0.0
2018-Feb-18 12:59N 33°46' W 118°13'0 0.0
2018-Feb-18 12:29N 33°46' W 118°13'0 0.0
2018-Feb-18 11:59N 33°46' W 118°13'0 0.0
2018-Feb-18 11:29N 33°46' W 118°13'0 0.0
2018-Feb-18 10:59N 33°46' W 118°13'0 0.0
2018-Feb-18 10:29N 33°46' W 118°13'0 0.0
2018-Feb-18 09:59N 33°46' W 118°13'0 0.0
2018-Feb-18 09:29N 33°46' W 118°13'0 0.0
2018-Feb-18 08:59N 33°46' W 118°13'0 0.0
2018-Feb-18 08:29N 33°46' W 118°13'0 0.0
2018-Feb-18 07:50N 33°46' W 118°13'0 0.0
2018-Feb-18 07:29N 33°46' W 118°13'0 0.0
2018-Feb-18 06:56N 33°46' W 118°13'0 0.0
2018-Feb-18 06:26N 33°46' W 118°13'0 0.0
2018-Feb-18 05:56N 33°46' W 118°13'0 0.0
2018-Feb-18 05:29N 33°46' W 118°13'0 0.0
2018-Feb-18 04:38N 33°46' W 118°13'0 0.0
2018-Feb-18 04:26N 33°46' W 118°13'0 0.0
2018-Feb-18 03:59N 33°46' W 118°13'0 0.0
2018-Feb-18 03:02N 33°46' W 118°13'0 0.0
2018-Feb-18 02:35N 33°46' W 118°13'0 0.0
2018-Feb-18 02:05N 33°46' W 118°13'0 0.0
2018-Feb-18 01:59N 33°46' W 118°13'0 0.0
2018-Feb-18 01:29N 33°46' W 118°13'0 0.0
2018-Feb-18 00:59N 33°46' W 118°13'0 0.0
2018-Feb-18 00:29N 33°46' W 118°13'0 0.0
2018-Feb-17 23:59N 33°46' W 118°13'0 0.0
2018-Feb-17 23:29N 33°46' W 118°13'0 0.0
2018-Feb-17 22:59N 33°46' W 118°13'0 0.0
2018-Feb-17 22:29N 33°46' W 118°13'0 0.0
2018-Feb-17 21:59N 33°46' W 118°13'0 0.0
2018-Feb-17 21:29N 33°46' W 118°13'0 0.0
2018-Feb-17 20:59N 33°46' W 118°13'0 0.0
2018-Feb-17 20:29N 33°46' W 118°13'0 0.0
2018-Feb-17 19:59N 33°46' W 118°13'0 0.0
2018-Feb-17 19:29N 33°46' W 118°13'0 0.0
2018-Feb-17 18:59N 33°46' W 118°13'0 0.0
2018-Feb-17 18:29N 33°46' W 118°13'0 0.0
2018-Feb-17 17:59N 33°46' W 118°13'0 0.0
2018-Feb-17 17:29N 33°46' W 118°13'0 0.0
2018-Feb-17 16:59N 33°46' W 118°13'0 0.0
2018-Feb-17 16:29N 33°46' W 118°13'0 0.0
2018-Feb-17 15:59N 33°46' W 118°13'0 0.0
2018-Feb-17 15:29N 33°46' W 118°13'0 0.0
2018-Feb-17 14:59N 33°46' W 118°13'0 0.0
2018-Feb-17 14:29N 33°46' W 118°13'0 0.0
2018-Feb-17 13:56N 33°46' W 118°13'0 0.0
2018-Feb-17 13:29N 33°46' W 118°13'0 0.0
2018-Feb-17 12:26N 33°46' W 118°13'0 0.0
2018-Feb-17 11:56N 33°46' W 118°13'0 0.0
2018-Feb-17 11:29N 33°46' W 118°13'0 0.0
2018-Feb-17 10:56N 33°46' W 118°13'0 0.0
2018-Feb-17 10:29N 33°46' W 118°13'0 0.0
2018-Feb-17 09:59N 33°46' W 118°13'0 0.0
2018-Feb-17 09:29N 33°46' W 118°13'0 0.0
2018-Feb-17 09:00N 33°46' W 118°13'0 0.0
2018-Feb-17 08:29N 33°46' W 118°13'0 0.0
2018-Feb-17 07:53N 33°46' W 118°13'0 0.0
2018-Feb-17 07:20N 33°46' W 118°13'0 0.0
2018-Feb-17 06:53N 33°46' W 118°13'0 0.0
2018-Feb-17 06:20N 33°46' W 118°13'0 0.0
2018-Feb-17 05:59N 33°46' W 118°13'0 0.0
2018-Feb-17 05:29N 33°46' W 118°13'0 0.0
2018-Feb-17 04:59N 33°46' W 118°13'0 0.0
2018-Feb-17 04:29N 33°46' W 118°13'0 0.0
2018-Feb-17 03:59N 33°46' W 118°13'0 0.0
2018-Feb-17 03:23N 33°46' W 118°13'0 0.0
2018-Feb-17 02:56N 33°46' W 118°13'0 0.0
2018-Feb-17 02:29N 33°46' W 118°13'0 0.0
2018-Feb-17 01:59N 33°46' W 118°13'0 0.0
2018-Feb-17 01:29N 33°46' W 118°13'0 0.0
2018-Feb-17 00:59N 33°46' W 118°13'0 0.0
2018-Feb-17 00:29N 33°46' W 118°13'0 0.0
2018-Feb-16 23:59N 33°46' W 118°13'0 0.0
2018-Feb-16 23:29N 33°46' W 118°13'0 0.0
2018-Feb-16 22:59N 33°46' W 118°13'0 0.0
2018-Feb-16 22:29N 33°46' W 118°13'0 0.0
2018-Feb-16 21:59N 33°46' W 118°13'0 0.0
2018-Feb-16 21:29N 33°46' W 118°13'0 0.0
2018-Feb-16 20:59N 33°46' W 118°13'0 0.0
2018-Feb-16 20:29N 33°46' W 118°13'0 0.0
2018-Feb-16 19:56N 33°46' W 118°13'0 0.0
2018-Feb-16 19:29N 33°46' W 118°13'0 0.0
2018-Feb-16 18:59N 33°46' W 118°13'0 0.0
2018-Feb-16 18:29N 33°46' W 118°13'0 0.0
2018-Feb-16 17:59N 33°46' W 118°13'0 0.0
2018-Feb-16 17:29N 33°46' W 118°13'0 0.0
2018-Feb-16 16:59N 33°46' W 118°13'0 0.0
2018-Feb-16 16:26N 33°46' W 118°13'0 0.0
2018-Feb-16 15:59N 33°46' W 118°13'0 0.0
2018-Feb-16 15:29N 33°46' W 118°13'0 0.0
2018-Feb-16 14:59N 33°46' W 118°13'0 0.0
2018-Feb-16 14:26N 33°46' W 118°13'0 0.0
2018-Feb-16 13:59N 33°46' W 118°13'0 0.0
2018-Feb-16 13:29N 33°46' W 118°13'0 0.0
2018-Feb-16 12:59N 33°46' W 118°13'0 0.0
2018-Feb-16 12:29N 33°46' W 118°13'0 0.0
2018-Feb-16 11:59N 33°46' W 118°13'0 0.0
2018-Feb-16 11:29N 33°46' W 118°13'0 0.0
2018-Feb-16 10:59N 33°46' W 118°13'0 0.0
2018-Feb-16 10:29N 33°46' W 118°13'0 0.0
2018-Feb-16 09:59N 33°46' W 118°13'0 0.0
2018-Feb-16 09:29N 33°46' W 118°13'0 0.0
2018-Feb-16 08:50N 33°46' W 118°13'0 0.0
2018-Feb-16 08:23N 33°46' W 118°13'0 0.0
2018-Feb-16 07:17N 33°46' W 118°13'0 0.0
2018-Feb-16 06:59N 33°46' W 118°13'0 0.0
2018-Feb-16 06:29N 33°46' W 118°13'0 0.0
2018-Feb-16 05:59N 33°46' W 118°13'0 0.0
2018-Feb-16 04:29N 33°46' W 118°13'0 0.0
2018-Feb-16 03:53N 33°46' W 118°13'0 0.0
2018-Feb-16 03:29N 33°46' W 118°13'0 0.0
2018-Feb-16 02:59N 33°46' W 118°13'0 0.0
2018-Feb-16 02:23N 33°46' W 118°13'0 0.0
2018-Feb-16 01:47N 33°46' W 118°13'0 0.0
2018-Feb-16 01:23N 33°46' W 118°13'0 0.0
2018-Feb-16 00:59N 33°46' W 118°13'0 0.0
2018-Feb-16 00:29N 33°46' W 118°13'0 0.0
2018-Feb-15 23:59N 33°46' W 118°13'0 0.0
2018-Feb-15 23:29N 33°46' W 118°13'0 0.0
2018-Feb-15 22:59N 33°46' W 118°13'0 0.0
2018-Feb-15 22:29N 33°46' W 118°13'0 0.0
2018-Feb-15 21:59N 33°46' W 118°13'0 0.0
2018-Feb-15 21:29N 33°46' W 118°13'0 0.0
2018-Feb-15 20:59N 33°46' W 118°13'0 0.0
2018-Feb-15 20:29N 33°46' W 118°13'0 0.0
2018-Feb-15 19:56N 33°46' W 118°13'0 0.0
2018-Feb-15 19:29N 33°46' W 118°13'0 0.0
2018-Feb-15 18:53N 33°46' W 118°13'0 0.0
2018-Feb-15 18:26N 33°46' W 118°13'0 0.0
2018-Feb-15 17:59N 33°46' W 118°13'0 0.0
2018-Feb-15 17:29N 33°46' W 118°13'0 0.0
2018-Feb-15 16:59N 33°46' W 118°13'0 0.0
2018-Feb-15 16:29N 33°46' W 118°13'0 0.0
2018-Feb-15 15:59N 33°46' W 118°13'0 0.0
2018-Feb-15 15:28N 33°46' W 118°13'0 0.0
2018-Feb-15 14:59N 33°46' W 118°13'0 0.0
2018-Feb-15 13:56N 33°46' W 118°13'0 0.0
2018-Feb-15 10:46N 33°46' W 118°13'0 0.0
2018-Feb-15 10:08N 33°46' W 118°13'0 0.0
2018-Feb-15 09:44N 33°46' W 118°13'0 0.0
2018-Feb-15 09:26N 33°46' W 118°13'0 0.0
2018-Feb-15 08:55N 33°46' W 118°13'0 0.0
2018-Feb-15 08:29N 33°46' W 118°13'0 0.0
2018-Feb-15 07:59N 33°46' W 118°13'0 0.0
2018-Feb-15 07:29N 33°46' W 118°13'0 0.0
2018-Feb-15 06:58N 33°46' W 118°13'0 0.0
2018-Feb-15 06:23N 33°46' W 118°13'0 0.0
2018-Feb-15 05:59N 33°46' W 118°13'0 0.0
2018-Feb-15 05:28N 33°46' W 118°13'0 0.0
2018-Feb-15 04:59N 33°46' W 118°13'0 0.0
2018-Feb-15 04:29N 33°46' W 118°13'0 0.0
2018-Feb-15 03:55N 33°46' W 118°13'0 0.0
2018-Feb-15 03:29N 33°46' W 118°13'0 0.0
2018-Feb-15 02:58N 33°46' W 118°13'0 0.0
2018-Feb-15 02:29N 33°46' W 118°13'0 0.0
2018-Feb-15 01:58N 33°46' W 118°13'0 0.0
2018-Feb-15 01:29N 33°46' W 118°13'0 0.0
2018-Feb-15 00:59N 33°46' W 118°13'0 0.0
2018-Feb-15 00:28N 33°46' W 118°13'0 0.0
2018-Feb-14 23:59N 33°46' W 118°13'0 0.0
2018-Feb-14 23:29N 33°46' W 118°13'0 0.0
2018-Feb-14 22:58N 33°46' W 118°13'0 0.0
2018-Feb-14 22:28N 33°46' W 118°13'0 0.0
2018-Feb-14 21:58N 33°46' W 118°13'0 0.0
2018-Feb-14 21:28N 33°46' W 118°13'0 0.0
2018-Feb-14 20:59N 33°46' W 118°13'0 0.0
2018-Feb-14 20:29N 33°46' W 118°13'0 0.0
2018-Feb-14 19:59N 33°46' W 118°13'0 0.0
2018-Feb-14 19:29N 33°46' W 118°13'0 0.0
2018-Feb-14 18:55N 33°46' W 118°13'0 0.0
2018-Feb-14 18:28N 33°46' W 118°13'0 0.0
2018-Feb-14 17:58N 33°46' W 118°13'0 0.0
2018-Feb-14 17:29N 33°46' W 118°13'0 0.0
2018-Feb-14 16:58N 33°46' W 118°13'0 0.0
2018-Feb-14 16:28N 33°46' W 118°13'0 0.0
2018-Feb-14 15:58N 33°46' W 118°13'0 0.0
2018-Feb-14 15:28N 33°46' W 118°13'0 0.0
2018-Feb-14 14:58N 33°46' W 118°13'0 0.0
2018-Feb-14 14:28N 33°46' W 118°13'0 0.0
2018-Feb-14 13:58N 33°46' W 118°13'0 0.0
2018-Feb-14 13:28N 33°46' W 118°13'0 0.0
2018-Feb-14 12:58N 33°46' W 118°13'0 0.0
2018-Feb-14 12:28N 33°46' W 118°13'0 0.0
2018-Feb-14 11:59N 33°46' W 118°13'0 0.0
2018-Feb-14 11:28N 33°46' W 118°13'0 0.0
2018-Feb-14 10:58N 33°46' W 118°13'0 0.0
2018-Feb-14 10:28N 33°46' W 118°13'0 0.0
2018-Feb-14 09:58N 33°46' W 118°13'0 0.0
2018-Feb-14 09:28N 33°46' W 118°13'0 0.0
2018-Feb-14 08:58N 33°46' W 118°13'0 0.0
2018-Feb-14 08:28N 33°46' W 118°13'0 0.0
2018-Feb-14 07:58N 33°46' W 118°13'0 0.0
2018-Feb-14 07:25N 33°46' W 118°13'0 0.0
2018-Feb-14 06:58N 33°46' W 118°13'0 0.0
2018-Feb-14 06:28N 33°46' W 118°13'0 0.0
2018-Feb-14 05:58N 33°46' W 118°13'0 0.0
2018-Feb-14 05:28N 33°46' W 118°13'0 0.0
2018-Feb-14 04:58N 33°46' W 118°13'0 0.0
2018-Feb-14 04:28N 33°46' W 118°13'0 0.0
2018-Feb-14 03:58N 33°46' W 118°13'0 0.0
2018-Feb-14 03:28N 33°46' W 118°13'0 0.0
2018-Feb-14 02:58N 33°46' W 118°13'0 0.0
2018-Feb-14 02:28N 33°46' W 118°13'0 0.0
2018-Feb-14 01:58N 33°46' W 118°13'0 0.0
2018-Feb-14 01:28N 33°46' W 118°13'0 0.0
2018-Feb-14 00:58N 33°46' W 118°13'0 0.0
2018-Feb-14 00:25N 33°46' W 118°13'0 0.0
2018-Feb-13 23:58N 33°46' W 118°13'0 0.0
2018-Feb-13 23:28N 33°46' W 118°13'0 0.0
2018-Feb-13 22:58N 33°46' W 118°13'0 0.0
2018-Feb-13 22:28N 33°46' W 118°13'0 0.0
2018-Feb-13 21:58N 33°46' W 118°13'0 0.0
2018-Feb-13 21:28N 33°46' W 118°13'0 0.0
2018-Feb-13 20:58N 33°46' W 118°13'0 0.0
2018-Feb-13 20:28N 33°46' W 118°13'0 0.0
2018-Feb-13 19:52N 33°46' W 118°13'0 0.0
2018-Feb-13 19:28N 33°46' W 118°13'0 0.0
2018-Feb-13 18:58N 33°46' W 118°13'0 0.0
2018-Feb-13 18:28N 33°46' W 118°13'0 0.0
2018-Feb-13 17:58N 33°46' W 118°13'0 0.0
2018-Feb-13 17:28N 33°46' W 118°13'0 0.0
2018-Feb-13 16:58N 33°46' W 118°13'0 0.0
2018-Feb-13 16:28N 33°46' W 118°13'0 0.0
2018-Feb-13 15:58N 33°46' W 118°13'0 0.0
2018-Feb-13 15:28N 33°46' W 118°13'0 0.0
2018-Feb-13 14:58N 33°46' W 118°13'0 0.0
2018-Feb-13 14:28N 33°46' W 118°13'0 0.0
2018-Feb-13 13:58N 33°46' W 118°13'0 0.0
2018-Feb-13 13:28N 33°46' W 118°13'0 0.0
2018-Feb-13 12:58N 33°46' W 118°13'0 0.0
2018-Feb-13 12:25N 33°46' W 118°13'0 0.0
2018-Feb-13 11:58N 33°46' W 118°13'0 0.0
2018-Feb-13 11:28N 33°46' W 118°13'0 0.0
2018-Feb-13 10:58N 33°46' W 118°13'0 0.0
2018-Feb-13 10:28N 33°46' W 118°13'0 0.0
2018-Feb-13 09:58N 33°46' W 118°13'0 0.0
2018-Feb-13 09:28N 33°46' W 118°13'0 0.0
2018-Feb-13 08:58N 33°46' W 118°13'0 0.0
2018-Feb-13 08:25N 33°46' W 118°13'0 0.0
2018-Feb-13 07:58N 33°46' W 118°13'0 0.0
2018-Feb-13 07:28N 33°46' W 118°13'0 0.0
2018-Feb-13 06:58N 33°46' W 118°13'0 0.0
2018-Feb-13 06:28N 33°46' W 118°13'0 0.0
2018-Feb-13 05:58N 33°46' W 118°13'0 0.0
2018-Feb-13 05:28N 33°46' W 118°13'0 0.0
2018-Feb-13 04:58N 33°46' W 118°13'0 0.0
2018-Feb-13 04:28N 33°46' W 118°13'0 0.0
2018-Feb-13 03:58N 33°46' W 118°13'0 0.0
2018-Feb-13 03:25N 33°46' W 118°13'0 0.0
2018-Feb-13 02:58N 33°46' W 118°13'0 0.0
2018-Feb-13 02:28N 33°46' W 118°13'0 0.0
2018-Feb-13 01:58N 33°46' W 118°13'0 0.0
2018-Feb-13 01:28N 33°46' W 118°13'0 0.0
2018-Feb-13 00:58N 33°46' W 118°13'0 0.0
2018-Feb-13 00:28N 33°46' W 118°13'0 0.0
2018-Feb-12 23:58N 33°46' W 118°13'0 0.0
2018-Feb-12 23:28N 33°46' W 118°13'0 0.0
2018-Feb-12 22:58N 33°46' W 118°13'0 0.0
2018-Feb-12 22:28N 33°46' W 118°13'0 0.0
2018-Feb-12 21:58N 33°46' W 118°13'0 0.0
2018-Feb-12 21:28N 33°46' W 118°13'0 0.0
2018-Feb-12 20:58N 33°46' W 118°13'0 0.0
2018-Feb-12 20:28N 33°46' W 118°13'0 0.0
2018-Feb-12 19:58N 33°46' W 118°13'0 0.0
2018-Feb-12 19:28N 33°46' W 118°13'0 0.0
2018-Feb-12 18:52N 33°46' W 118°13'0 0.0
2018-Feb-12 18:28N 33°46' W 118°13'  

Dump ship's entire track history